• Join FlightAware (Why Join?)
  • Login
  • US Flag 
06:08AM EDT


 

Airport Tracker/Info


-or-


 

Live Flight TrackerFlight Track Log ✈ SWA2403 ✈ 19-Apr-2013 ✈ KLAS - KSMF

Flight Track Log - Related Links

Times and Time Zones

All times are in EDT time to prevent confusion due to time zone crossing. See the SWA2403 flight status page for this flight to view local times or setup timezone preferences in your user account.

Time Position Orientation Groundspeed Altitude Reporting Facility
EDT Latitude Longitude Course Direction KTS MPH feet Rate Location/Type
09:59PM 36.0767 -115.1706 269° West 153 176 3,400  Level Los Angeles Center
10:00PM 36.0758 -115.2267 269° West 197 227 4,900 1,440 Climbing Los Angeles Center
10:01PM 36.0539 -115.2622 233° Southwest 231 266 5,600 1,860 Climbing Los Angeles Center
10:01PM 36.0219 -115.2764 200° South 275 316 6,800 1,320 Climbing Los Angeles Center
10:02PM 35.9808 -115.2953 200° South 263 303 7,000 420 Climbing Los Angeles Center
10:02PM 35.9492 -115.3294 221° Southwest 276 318 7,300 1,620 Climbing Los Angeles Center
10:03PM 35.9239 -115.3589 223° Southwest 272 313 8,700 1,620 Climbing Los Angeles Center
10:03PM 35.8922 -115.3958 223° Southwest 289 333 9,000 540 Climbing Los Angeles Center
10:04PM 35.8864 -115.4397 261° West 278 320 9,300 1,860 Climbing Los Angeles Center
10:05PM 35.8883 -115.5358 271° West 277 319 12,000 2,700 Climbing Los Angeles Center
10:06PM 35.8903 -115.6592 271° West 340 391 14,900 3,060 Climbing Los Angeles Center
10:07PM 35.8925 -115.7919 271° West 360 414 18,300 3,000 Climbing Los Angeles Center
10:08PM 35.8950 -115.9178 271° West 368 423 21,200 2,580 Climbing Los Angeles Center
10:09PM 35.9481 -116.0297 300° West 364 419 23,700 2,220 Climbing Los Angeles Center
10:10PM 36.0272 -116.1200 317° Northwest 379 436 25,800 2,100 Climbing Los Angeles Center
10:11PM 36.1061 -116.2108 317° Northwest 385 443 28,100 2,220 Climbing Los Angeles Center
10:12PM 36.1725 -116.2883 317° Northwest 382 440 30,500 2,340 Climbing Los Angeles Center
10:13PM 36.2633 -116.3942 317° Northwest 376 433 33,000 1,680 Climbing Los Angeles Center
10:14PM 36.3367 -116.4789 317° Northwest 367 422 34,000 480 Climbing Los Angeles Center
10:15PM 36.4131 -116.5667 317° Northwest 372 428 34,000  Level Los Angeles Center
10:16PM 36.4894 -116.6569 316° Northwest 378 435 34,000  Level Los Angeles Center
10:17PM 36.5789 -116.7611 317° Northwest 379 436 34,000  Level Los Angeles Center
10:18PM 36.6703 -116.8275 330° Northwest 382 440 34,000  Level Los Angeles Center
10:19PM 36.7631 -116.8956 330° Northwest 379 436 34,000  Level Los Angeles Center
10:20PM 36.8500 -116.9644 328° Northwest 379 436 34,000  Level Los Angeles Center
10:21PM 36.9386 -117.0319 329° Northwest 374 430 34,000  Level Los Angeles Center
10:22PM 37.0297 -117.1006 329° Northwest 379 436 34,000  Level Los Angeles Center
10:23PM 37.1356 -117.1850 328° Northwest 375 432 34,000  Level Oakland Center
10:24PM 37.2256 -117.2539 329° Northwest 376 433 34,000  Level Oakland Center
10:25PM 37.3108 -117.3264 326° Northwest 370 426 34,000  Level Oakland Center
10:26PM 37.3753 -117.4253 309° West 360 414 34,000  Level Oakland Center
10:27PM 37.4306 -117.5328 303° West 362 417 34,000 -300 Level Oakland Center
10:28PM 37.4819 -117.6422 301° West 361 415 33,400 -780 Descending Oakland Center
10:29PM 37.5347 -117.7508 302° West 361 415 32,500 -720 Descending Oakland Center
10:30PM 37.5850 -117.8603 300° West 360 414 32,000 -300 Descending Oakland Center
10:31PM 37.6364 -117.9694 301° West 359 413 32,000  Level Oakland Center
10:32PM 37.6872 -118.0772 301° West 356 410 32,000  Level Oakland Center
10:33PM 37.7378 -118.1858 301° West 356 410 32,000  Level Oakland Center
10:34PM 37.7872 -118.2944 300° West 353 406 32,000  Level Oakland Center
10:35PM 37.8375 -118.4050 300° West 358 412 32,000 -540 Level Oakland Center
10:36PM 37.8903 -118.5161 301° West 365 420 31,000 -960 Descending Oakland Center
10:37PM 37.9408 -118.6286 300° West 366 421 30,100 -540 Descending Oakland Center
10:38PM 37.9933 -118.7428 300° West 371 427 30,000 -60 Descending Oakland Center
10:39PM 38.0569 -118.8789 301° West 373 429 30,000  Level Oakland Center
10:41PM 38.1092 -118.9900 301° West 368 423 30,000  Level Oakland Center
10:42PM 38.1600 -119.1031 300° West 368 423 30,000 -60 Level Oakland Center
10:43PM 38.2108 -119.2147 300° West 366 421 29,900 -540 Descending Oakland Center
10:44PM 38.2606 -119.3278 299° West 365 420 28,900 -1,020 Descending Oakland Center
10:45PM 38.3136 -119.4439 300° West 374 430 27,900 -1,020 Descending Oakland Center
10:46PM 38.3617 -119.5539 299° West 378 435 26,900 -1,080 Descending Oakland Center
10:47PM 38.4178 -119.6769 300° West 377 434 25,800 -1,080 Descending Oakland Center
10:48PM 38.4694 -119.7925 300° West 375 432 24,800 -1,080 Descending Oakland Center
10:49PM 38.5244 -119.9194 299° West 367 422 23,600 -1,140 Descending Oakland Center
10:50PM 38.5733 -120.0322 299° West 365 420 22,600 -1,020 Descending Oakland Center
10:51PM 38.6219 -120.1431 299° West 361 415 21,600 -1,020 Descending Oakland Center
10:52PM 38.6689 -120.2536 299° West 357 411 20,600 -1,020 Descending Oakland Center
10:53PM 38.7175 -120.3628 300° West 355 409 19,600 -1,020 Descending Oakland Center
10:54PM 38.7464 -120.4850 287° West 363 418 18,600 -960 Descending Oakland Center
10:55PM 38.7664 -120.6103 282° West 362 417 17,700 -1,020 Descending Oakland Center
10:56PM 38.7864 -120.7344 282° West 359 413 16,600 -1,140 Descending Oakland Center
10:57PM 38.8067 -120.8572 282° West 356 410 15,500 -1,920 Descending Oakland Center
10:58PM 38.8294 -121.0006 282° West 347 399 12,700 -2,400 Descending Oakland Center
10:59PM 38.8483 -121.1139 282° West 333 383 10,700 -1,740 Descending Oakland Center
10:59PM 38.8500 -121.1667 272° West 314 361 10,300 -1,020 Descending Northern Cal TRACON
11:00PM 38.8833 -121.2500 297° West 271 312 9,200 -1,320 Descending Northern Cal TRACON
11:01PM 38.9333 -121.3333 308° West 268 308 7,600 -1,740 Descending Northern Cal TRACON
11:02PM 38.9333 -121.4333 270° West 261 300 5,800 -1,860 Descending Northern Cal TRACON
11:03PM 38.9167 -121.5167 256° West 265 305 3,900 -1,680 Descending Northern Cal TRACON
11:04PM 38.8667 -121.5667 218° Southwest 234 269 2,500 -960 Descending Northern Cal TRACON
11:05PM 38.8000 -121.6000 201° Southwest 202 232 2,000 -660 Descending Northern Cal TRACON
11:06PM 38.7667 -121.6000 180° South 169 194 1,200 -900 Descending Northern Cal TRACON
11:07PM 38.7167 -121.6000 180° South 142 163 400 -840 Descending Northern Cal TRACON
11:10PM 38.6954 -121.5908 218° Southwest  Level Estimated